Time,TemperatureF,DewpointF,PressureIn,WindDirection,WindDirectionDegrees,WindSpeedMPH,WindSpeedGustMPH,Humidity,HourlyPrecipIn,Conditions,Clouds,dailyrainin,SoftwareType,DateUTC
2013-10-24 00:15:00,37.0,34.0,29.96,WSW,251,2.0,6.0,90,0.00,,,0.14,,2013-10-24 04:15:00,
2013-10-24 00:24:00,37.0,34.0,29.96,WSW,250,3.0,7.0,90,0.00,,,0.14,,2013-10-24 04:24:00,
2013-10-24 00:54:00,37.0,34.0,29.96,WNW,299,2.0,6.0,90,0.00,,,0.14,,2013-10-24 04:54:00,
2013-10-24 01:22:00,37.0,34.0,29.96,WNW,283,2.0,6.0,89,0.00,,,0.14,,2013-10-24 05:22:00,
2013-10-24 01:53:00,37.0,34.0,29.96,West,270,1.0,4.0,90,0.00,,,0.14,,2013-10-24 05:53:00,
2013-10-24 02:12:00,37.0,34.0,29.96,SW,236,2.0,4.0,90,0.00,,,0.14,,2013-10-24 06:12:00,
2013-10-24 02:22:00,37.0,34.0,29.97,SW,228,1.0,5.0,90,0.00,,,0.14,,2013-10-24 06:22:00,
2013-10-24 02:52:00,37.0,34.0,29.97,West,264,2.0,8.0,89,0.00,,,0.14,,2013-10-24 06:52:00,
2013-10-24 03:22:00,37.0,34.0,29.97,WNW,295,1.0,5.0,89,0.00,,,0.14,,2013-10-24 07:22:00,
2013-10-24 03:42:00,37.0,34.0,29.97,SSE,161,1.0,5.0,89,0.00,,,0.14,,2013-10-24 07:42:00,
2013-10-24 03:52:00,37.0,34.0,29.98,WSW,258,1.0,3.0,89,0.00,,,0.14,,2013-10-24 07:52:00,
2013-10-24 04:22:00,37.0,34.0,29.98,WSW,239,1.0,3.0,89,0.00,,,0.14,,2013-10-24 08:22:00,
2013-10-24 04:42:00,37.0,34.0,29.98,West,263,1.0,4.0,89,0.00,,,0.14,,2013-10-24 08:42:00,
2013-10-24 04:53:00,37.0,34.0,29.98,West,267,1.0,4.0,89,0.00,,,0.14,,2013-10-24 08:53:00,
2013-10-24 05:22:00,37.0,34.0,29.99,West,266,2.0,5.0,89,0.00,,,0.14,,2013-10-24 09:22:00,
2013-10-24 05:53:00,37.0,34.0,30.00,West,266,1.0,4.0,89,0.00,,,0.14,,2013-10-24 09:53:00,
2013-10-24 06:23:00,37.0,34.0,30.01,West,267,1.0,4.0,89,0.00,,,0.14,,2013-10-24 10:23:00,
2013-10-24 06:53:00,37.0,34.0,30.02,WSW,252,3.0,6.0,88,0.00,,,0.14,,2013-10-24 10:53:00,
2013-10-24 07:22:00,36.0,33.0,30.03,WSW,249,2.0,8.0,87,0.00,,,0.13,,2013-10-24 11:22:00,
2013-10-24 07:42:00,36.0,32.0,30.03,WNW,283,2.0,6.0,86,0.00,,,0.13,,2013-10-24 11:42:00,
2013-10-24 07:53:00,36.0,32.0,30.03,WSW,248,2.0,8.0,86,0.00,,,0.13,,2013-10-24 11:53:00,
2013-10-24 08:22:00,36.0,33.0,30.04,West,265,3.0,5.0,87,0.00,,,0.13,,2013-10-24 12:22:00,
2013-10-24 08:32:00,36.0,33.0,30.04,West,265,3.0,5.0,87,0.00,,,0.13,,2013-10-24 12:32:00,
2013-10-24 08:42:00,36.0,33.0,30.04,West,265,3.0,5.0,87,0.00,,,0.13,,2013-10-24 12:42:00,
2013-10-24 08:52:00,36.0,32.0,30.05,WSW,238,2.0,5.0,86,0.00,,,0.13,,2013-10-24 12:52:00,
2013-10-24 09:12:00,37.0,33.0,30.05,West,276,2.0,6.0,86,0.00,,,0.13,,2013-10-24 13:12:00,
2013-10-24 09:22:00,37.0,33.0,30.05,WSW,256,2.0,6.0,85,0.00,,,0.13,,2013-10-24 13:22:00,
2013-10-24 09:42:00,37.0,33.0,30.06,East,88,1.0,5.0,85,0.00,,,0.13,,2013-10-24 13:42:00,
2013-10-24 09:52:00,37.0,33.0,30.06,West,266,2.0,6.0,85,0.00,,,0.13,,2013-10-24 13:52:00,
2013-10-24 10:22:00,39.0,34.0,30.06,WNW,296,4.0,7.0,82,0.00,,,0.10,,2013-10-24 14:22:00,
2013-10-24 10:42:00,40.0,34.0,30.07,WNW,286,3.0,6.0,79,0.00,,,0.10,,2013-10-24 14:42:00,
2013-10-24 10:52:00,40.0,33.0,30.07,WSW,251,3.0,8.0,77,0.00,,,0.10,,2013-10-24 14:52:00,
2013-10-24 11:21:00,40.0,32.0,30.07,WSW,243,3.0,6.0,74,0.00,,,0.09,,2013-10-24 15:21:00,
2013-10-24 11:53:00,43.0,34.0,30.07,NNE,25,3.0,8.0,70,0.00,,,0.09,,2013-10-24 15:53:00,
2013-10-24 12:23:00,42.0,31.0,30.06,WSW,257,3.0,7.0,65,0.00,,,0.08,,2013-10-24 16:23:00,
2013-10-24 12:42:00,42.0,31.0,30.06,WNW,282,4.0,8.0,65,0.00,,,0.08,,2013-10-24 16:42:00,
2013-10-24 12:53:00,43.0,30.0,30.06,WSW,246,3.0,9.0,60,0.00,,,0.08,,2013-10-24 16:53:00,
2013-10-24 13:22:00,44.0,30.0,30.05,SSW,198,4.0,12.0,58,0.00,,,0.07,,2013-10-24 17:22:00,
2013-10-24 13:43:00,46.0,32.0,30.04,SW,228,3.0,10.0,59,0.00,,,0.07,,2013-10-24 17:43:00,
2013-10-24 13:52:00,46.0,32.0,30.04,SSW,202,3.0,10.0,59,0.00,,,0.07,,2013-10-24 17:52:00,
2013-10-24 14:23:00,45.0,30.0,30.04,NW,311,2.0,8.0,55,0.00,,,0.06,,2013-10-24 18:23:00,
2013-10-24 14:42:00,44.0,28.0,30.04,WSW,243,4.0,7.0,54,0.00,,,0.06,,2013-10-24 18:42:00,
2013-10-24 14:53:00,46.0,27.0,30.04,West,263,4.0,12.0,48,0.00,,,0.06,,2013-10-24 18:53:00,
2013-10-24 15:22:00,44.0,28.0,30.05,West,281,3.0,10.0,53,0.00,,,0.05,,2013-10-24 19:22:00,
2013-10-24 15:43:00,44.0,29.0,30.05,NNW,343,2.0,11.0,56,0.00,,,0.05,,2013-10-24 19:43:00,
2013-10-24 15:53:00,41.0,31.0,30.07,West,265,2.0,10.0,68,0.00,,,0.05,,2013-10-24 19:53:00,
2013-10-24 16:23:00,42.0,31.0,30.06,West,281,1.0,4.0,65,0.00,,,0.04,,2013-10-24 20:23:00,
2013-10-24 16:53:00,44.0,30.0,30.07,SSW,210,3.0,7.0,58,0.00,,,0.04,,2013-10-24 20:53:00,
2013-10-24 17:22:00,44.0,30.0,30.07,West,278,1.0,7.0,58,0.00,,,0.00,,2013-10-24 21:22:00,
2013-10-24 17:43:00,43.0,29.0,30.07,SE,138,3.0,7.0,58,0.00,,,0.00,,2013-10-24 21:43:00,
2013-10-24 17:54:00,43.0,30.0,30.08,WSW,246,3.0,7.0,59,0.00,,,0.00,,2013-10-24 21:54:00,
2013-10-24 18:14:00,43.0,29.0,30.08,West,259,3.0,6.0,58,0.00,,,0.00,,2013-10-24 22:14:00,
2013-10-24 18:24:00,42.0,29.0,30.09,West,274,3.0,8.0,59,0.00,,,0.00,,2013-10-24 22:24:00,
2013-10-24 18:54:00,41.0,29.0,30.10,NW,319,0.0,2.0,62,0.00,,,0.00,,2013-10-24 22:54:00,
2013-10-24 19:13:00,40.0,29.0,30.11,West,273,0.0,3.0,65,0.00,,,0.00,,2013-10-24 23:13:00,
2013-10-24 19:22:00,39.0,30.0,30.12,WNW,287,0.0,1.0,69,0.00,,,0.00,,2013-10-24 23:22:00,
2013-10-24 19:53:00,40.0,31.0,30.14,WSW,251,2.0,4.0,69,0.00,,,0.00,,2013-10-24 23:53:00,
2013-10-24 20:12:00,39.0,30.0,30.14,West,273,2.0,6.0,71,0.00,,,0.00,,2013-10-25 00:12:00,
2013-10-24 20:22:00,38.0,31.0,30.15,WNW,296,1.0,6.0,76,0.00,,,0.00,,2013-10-25 00:22:00,
2013-10-24 20:52:00,38.0,32.0,30.15,WNW,284,2.0,3.0,79,0.00,,,0.00,,2013-10-25 00:52:00,
2013-10-24 21:12:00,38.0,32.0,30.15,WNW,292,1.0,7.0,79,0.00,,,0.00,,2013-10-25 01:12:00,
2013-10-24 21:22:00,37.0,31.0,30.15,West,260,0.0,3.0,80,0.00,,,0.00,,2013-10-25 01:22:00,
2013-10-24 21:53:00,36.0,32.0,30.16,West,273,1.0,4.0,85,0.00,,,0.00,,2013-10-25 01:53:00,
2013-10-24 22:23:00,36.0,32.0,30.17,WSW,242,0.0,2.0,84,0.00,,,0.00,,2013-10-25 02:23:00,
2013-10-24 22:42:00,35.0,31.0,30.17,WSW,242,0.0,2.0,85,0.00,,,0.00,,2013-10-25 02:42:00,
2013-10-24 22:52:00,35.0,31.0,30.17,WSW,244,0.0,2.0,86,0.00,,,0.00,,2013-10-25 02:52:00,
2013-10-24 23:23:00,35.0,32.0,30.17,West,267,1.0,4.0,87,0.00,,,0.00,,2013-10-25 03:23:00,
2013-10-24 23:54:00,34.0,30.0,30.17,West,277,1.0,3.0,86,0.00,,,0.00,,2013-10-25 03:54:00,